createdAt,value
2022-10-09T00:00:32.057Z,15.20
2022-10-09T00:01:32.070Z,13.90
2022-10-09T00:02:32.097Z,14.30
2022-10-09T00:03:32.828Z,14.40
2022-10-09T00:04:32.012Z,15.50
2022-10-09T00:05:32.102Z,14.40
2022-10-09T00:06:31.982Z,14.70
2022-10-09T00:07:31.974Z,14.00
2022-10-09T00:08:31.956Z,14.20
2022-10-09T00:09:31.966Z,14.20
2022-10-09T00:10:31.950Z,14.00
2022-10-09T00:11:31.934Z,14.40
2022-10-09T00:12:31.916Z,13.80
2022-10-09T00:13:31.914Z,14.20
2022-10-09T00:14:31.907Z,13.90
2022-10-09T00:15:31.903Z,14.30
2022-10-09T00:16:31.931Z,13.60
2022-10-09T00:17:31.869Z,13.40
2022-10-09T00:18:31.852Z,13.90
2022-10-09T00:19:31.878Z,13.80
2022-10-09T00:20:31.829Z,12.70
2022-10-09T00:21:31.841Z,13.90
2022-10-09T00:22:31.805Z,13.10
2022-10-09T00:23:31.803Z,13.20
2022-10-09T00:24:31.797Z,13.30
2022-10-09T00:25:31.823Z,13.40
2022-10-09T00:26:31.764Z,14.20
2022-10-09T00:27:31.756Z,13.60
2022-10-09T00:28:35.315Z,14.10
2022-10-09T00:29:31.761Z,14.20
2022-10-09T00:30:31.821Z,14.80
2022-10-09T00:31:31.721Z,14.90
2022-10-09T00:32:31.743Z,14.30
2022-10-09T00:33:31.712Z,14.70
2022-10-09T00:34:31.674Z,14.90
2022-10-09T00:35:31.705Z,14.80
2022-10-09T00:36:31.669Z,14.70
2022-10-09T00:37:31.670Z,14.60
2022-10-09T00:38:31.642Z,15.20
2022-10-09T00:39:31.637Z,14.70
2022-10-09T00:40:31.632Z,14.90
2022-10-09T00:41:31.616Z,13.90
2022-10-09T00:42:31.596Z,14.40
2022-10-09T00:43:31.585Z,14.50
2022-10-09T00:44:31.568Z,14.60
2022-10-09T00:45:39.085Z,14.10
2022-10-09T00:46:31.610Z,15.20
2022-10-09T00:47:31.539Z,15.00
2022-10-09T00:48:31.532Z,15.10
2022-10-09T00:49:31.516Z,14.50
2022-10-09T00:50:31.499Z,15.10
2022-10-09T00:51:31.503Z,15.60
2022-10-09T00:52:31.478Z,15.10
2022-10-09T00:53:31.493Z,14.60
2022-10-09T00:54:31.456Z,14.50
2022-10-09T00:55:31.449Z,14.60
2022-10-09T00:56:31.460Z,13.10
2022-10-09T00:57:31.459Z,13.10
2022-10-09T00:58:31.417Z,12.60
2022-10-09T00:59:31.407Z,12.50
2022-10-09T01:00:31.391Z,13.10
2022-10-09T01:01:31.510Z,13.00
2022-10-09T01:02:31.390Z,13.70
2022-10-09T01:03:31.365Z,13.70
2022-10-09T01:04:31.354Z,13.30
2022-10-09T01:05:31.342Z,13.80
2022-10-09T01:06:31.348Z,14.50
2022-10-09T01:07:31.350Z,13.80
2022-10-09T01:08:31.305Z,14.10
2022-10-09T01:09:31.319Z,13.30
2022-10-09T01:10:31.284Z,13.30
2022-10-09T01:11:31.290Z,13.50
2022-10-09T01:12:31.273Z,14.00
2022-10-09T01:13:31.258Z,12.90
2022-10-09T01:14:31.242Z,13.50
2022-10-09T01:15:31.288Z,13.40
2022-10-09T01:16:31.247Z,12.70
2022-10-09T01:17:31.235Z,12.70
2022-10-09T01:18:31.196Z,13.00
2022-10-09T01:19:31.191Z,12.30
2022-10-09T01:20:31.190Z,12.40
2022-10-09T01:21:31.184Z,12.20
2022-10-09T01:22:31.155Z,11.70
2022-10-09T01:23:31.153Z,11.90
2022-10-09T01:24:31.131Z,11.90
2022-10-09T01:25:31.157Z,11.60
2022-10-09T01:26:31.123Z,11.70
2022-10-09T01:27:31.118Z,11.00
2022-10-09T01:28:31.182Z,10.60
2022-10-09T01:29:31.083Z,11.00
2022-10-09T01:30:31.082Z,11.70
2022-10-09T01:31:31.145Z,11.00
2022-10-09T01:32:31.357Z,11.00
2022-10-09T01:33:31.041Z,11.10
2022-10-09T01:34:31.026Z,10.40
2022-10-09T01:35:31.017Z,10.60
2022-10-09T01:36:31.010Z,10.20
2022-10-09T01:37:31.010Z,10.20
2022-10-09T01:38:30.985Z,9.90
2022-10-09T01:39:30.975Z,10.00
2022-10-09T01:40:30.972Z,9.40
2022-10-09T01:41:30.986Z,10.20
2022-10-09T01:42:30.958Z,10.30
2022-10-09T01:43:30.936Z,9.20
2022-10-09T01:44:30.920Z,9.70
2022-10-09T01:45:30.922Z,9.80
2022-10-09T01:46:30.964Z,10.20
2022-10-09T01:47:30.894Z,9.50
2022-10-09T01:48:30.877Z,9.40
2022-10-09T01:49:30.870Z,9.20
2022-10-09T01:50:30.901Z,9.30
2022-10-09T01:51:30.841Z,9.00
2022-10-09T01:52:30.839Z,8.30
2022-10-09T01:53:30.849Z,9.00
2022-10-09T01:54:30.815Z,9.20
2022-10-09T01:55:30.824Z,9.30
2022-10-09T01:56:30.818Z,9.50
2022-10-09T01:57:30.807Z,9.30
2022-10-09T01:58:30.770Z,9.30
2022-10-09T01:59:30.766Z,9.80
2022-10-09T02:00:30.750Z,9.40
2022-10-09T02:01:30.791Z,9.70
2022-10-09T02:02:30.759Z,10.10
2022-10-09T02:03:30.714Z,9.60
2022-10-09T02:04:30.711Z,9.70
2022-10-09T02:05:30.702Z,9.20
2022-10-09T02:06:30.685Z,8.90
2022-10-09T02:07:30.679Z,9.60
2022-10-09T02:08:30.665Z,9.30
2022-10-09T02:09:30.664Z,8.90
2022-10-09T02:10:30.639Z,9.10
2022-10-09T02:11:30.645Z,9.10
2022-10-09T02:12:30.630Z,9.30
2022-10-09T02:13:30.627Z,9.10
2022-10-09T02:14:30.598Z,9.50
2022-10-09T02:15:30.710Z,9.40
2022-10-09T02:16:34.777Z,9.50
2022-10-09T02:17:31.572Z,9.60
2022-10-09T02:18:30.559Z,9.70
2022-10-09T02:19:30.574Z,9.60
2022-10-09T02:20:30.553Z,8.90
2022-10-09T02:21:30.546Z,9.20
2022-10-09T02:22:30.514Z,9.10
2022-10-09T02:23:30.529Z,9.40
2022-10-09T02:24:30.515Z,9.10
2022-10-09T02:25:30.480Z,8.90
2022-10-09T02:26:30.480Z,9.10
2022-10-09T02:27:30.470Z,9.10
2022-10-09T02:28:30.510Z,8.90
2022-10-09T02:29:30.465Z,9.50
2022-10-09T02:30:30.441Z,8.80
2022-10-09T02:31:30.516Z,8.90
2022-10-09T02:32:30.409Z,8.50
2022-10-09T02:33:30.400Z,8.00
2022-10-09T02:34:30.410Z,9.10
2022-10-09T02:35:30.372Z,9.30
2022-10-09T02:36:30.390Z,9.40
2022-10-09T02:37:30.355Z,8.60
2022-10-09T02:38:30.355Z,8.30
2022-10-09T02:39:30.323Z,9.40
2022-10-09T02:40:30.319Z,9.10
2022-10-09T02:41:30.316Z,9.60
2022-10-09T02:42:30.306Z,9.10
2022-10-09T02:43:30.278Z,8.80
2022-10-09T02:44:30.272Z,9.20
2022-10-09T02:45:30.277Z,9.70
2022-10-09T02:46:37.822Z,9.90
2022-10-09T02:47:30.236Z,9.40
2022-10-09T02:48:30.229Z,9.50
2022-10-09T02:49:30.225Z,10.30
2022-10-09T02:50:30.208Z,9.20
2022-10-09T02:51:30.202Z,9.60
2022-10-09T02:52:30.191Z,10.00
2022-10-09T02:53:30.172Z,9.70
2022-10-09T02:54:30.165Z,9.80
2022-10-09T02:55:30.167Z,9.50
2022-10-09T02:56:30.158Z,9.40
2022-10-09T02:57:30.131Z,9.10
2022-10-09T02:58:30.124Z,9.30
2022-10-09T02:59:30.125Z,9.40
2022-10-09T03:00:30.106Z,10.00
2022-10-09T03:01:30.940Z,9.10
2022-10-09T03:02:30.228Z,9.90
2022-10-09T03:03:30.075Z,8.40
2022-10-09T03:04:30.063Z,9.00
2022-10-09T03:05:30.071Z,9.20
2022-10-09T03:06:30.041Z,9.60
2022-10-09T03:07:30.020Z,10.30
2022-10-09T03:08:30.013Z,9.30
2022-10-09T03:09:33.543Z,8.30
2022-10-09T03:10:30.005Z,9.20
2022-10-09T03:11:29.979Z,8.80
2022-10-09T03:12:29.972Z,9.30
2022-10-09T03:13:29.972Z,8.60
2022-10-09T03:14:29.964Z,8.60
2022-10-09T03:15:29.949Z,9.20
2022-10-09T03:16:30.003Z,9.50
2022-10-09T03:17:29.933Z,9.20
2022-10-09T03:18:29.906Z,9.60
2022-10-09T03:19:29.890Z,9.40
2022-10-09T03:20:29.902Z,9.10
2022-10-09T03:21:29.885Z,9.40
2022-10-09T03:22:29.869Z,9.40
2022-10-09T03:23:29.869Z,9.30
2022-10-09T03:24:29.843Z,9.70
2022-10-09T03:25:29.855Z,9.80
2022-10-09T03:26:29.864Z,9.80
2022-10-09T03:27:29.817Z,9.40
2022-10-09T03:28:29.843Z,9.30
2022-10-09T03:29:29.782Z,9.30
2022-10-09T03:30:29.776Z,9.10
2022-10-09T03:32:29.803Z,9.90
2022-10-09T03:33:29.771Z,9.00
2022-10-09T03:34:29.741Z,8.60
2022-10-09T03:35:29.719Z,8.90
2022-10-09T03:36:29.712Z,9.70
2022-10-09T03:37:29.714Z,9.00
2022-10-09T03:38:29.707Z,8.70
2022-10-09T03:39:29.674Z,8.50
2022-10-09T03:40:29.668Z,9.30
2022-10-09T03:41:29.652Z,9.50
2022-10-09T03:42:29.699Z,9.40
2022-10-09T03:43:29.630Z,9.00
2022-10-09T03:44:29.635Z,9.40
2022-10-09T03:45:29.619Z,9.10
2022-10-09T03:46:29.685Z,9.00
2022-10-09T03:47:29.603Z,9.20
2022-10-09T03:48:29.583Z,9.70
2022-10-09T03:49:29.587Z,9.30
2022-10-09T03:50:29.560Z,9.60
2022-10-09T03:51:29.560Z,9.20
2022-10-09T03:52:29.546Z,9.50
2022-10-09T03:53:29.523Z,9.30
2022-10-09T03:54:29.526Z,9.40
2022-10-09T03:55:29.510Z,8.80
2022-10-09T03:56:29.515Z,9.00
2022-10-09T03:57:29.515Z,8.80
2022-10-09T03:58:29.476Z,9.30
2022-10-09T03:59:29.464Z,8.60
2022-10-09T04:00:29.462Z,9.40
2022-10-09T04:01:29.560Z,9.30
2022-10-09T04:02:29.550Z,8.80
2022-10-09T04:03:29.418Z,9.10
2022-10-09T04:04:29.411Z,8.50
2022-10-09T04:05:29.437Z,8.40
2022-10-09T04:06:29.400Z,9.00
2022-10-09T04:07:29.385Z,8.50
2022-10-09T04:08:29.378Z,9.20
2022-10-09T04:09:29.351Z,8.90
2022-10-09T04:10:29.345Z,9.00
2022-10-09T04:11:29.350Z,8.50
2022-10-09T04:12:29.349Z,8.80
2022-10-09T04:13:29.319Z,7.50
2022-10-09T04:14:29.311Z,8.40
2022-10-09T04:15:29.311Z,8.60
2022-10-09T04:16:29.325Z,8.00
2022-10-09T04:17:29.281Z,8.50
2022-10-09T04:18:29.277Z,8.60
2022-10-09T04:19:29.250Z,8.50
2022-10-09T04:20:29.243Z,8.50
2022-10-09T04:21:29.241Z,8.20
2022-10-09T04:22:29.218Z,7.80
2022-10-09T04:23:29.220Z,7.60
2022-10-09T04:24:29.199Z,8.50
2022-10-09T04:25:29.201Z,7.80
2022-10-09T04:26:29.171Z,7.80
2022-10-09T04:27:29.159Z,8.00
2022-10-09T04:28:29.196Z,8.10
2022-10-09T04:29:29.139Z,8.40
2022-10-09T04:30:29.880Z,7.60
2022-10-09T04:31:29.232Z,8.50
2022-10-09T04:32:29.121Z,7.50
2022-10-09T04:33:29.092Z,8.10
2022-10-09T04:34:29.086Z,8.00
2022-10-09T04:35:29.069Z,8.20
2022-10-09T04:36:29.075Z,8.30
2022-10-09T04:37:29.078Z,8.10
2022-10-09T04:38:29.049Z,8.00
2022-10-09T04:39:29.025Z,8.30
2022-10-09T04:40:29.019Z,7.90
2022-10-09T04:41:29.004Z,8.20
2022-10-09T04:42:29.009Z,8.70
2022-10-09T04:43:28.983Z,8.00
2022-10-09T04:44:28.978Z,8.00
2022-10-09T04:45:29.038Z,8.20
2022-10-09T04:46:28.969Z,8.30
2022-10-09T04:47:36.453Z,8.10
2022-10-09T04:48:28.940Z,7.40
2022-10-09T04:49:28.928Z,8.20
2022-10-09T04:50:28.912Z,8.50
2022-10-09T04:51:28.910Z,8.00
2022-10-09T04:52:28.890Z,8.10
2022-10-09T04:53:28.894Z,8.10
2022-10-09T04:54:28.869Z,7.80
2022-10-09T04:55:28.878Z,8.10
2022-10-09T04:56:28.868Z,8.00
2022-10-09T04:57:28.832Z,8.00
2022-10-09T04:58:28.825Z,8.20
2022-10-09T04:59:28.818Z,7.90
2022-10-09T05:00:28.815Z,8.10
2022-10-09T05:01:29.264Z,8.30
2022-10-09T05:02:28.881Z,7.50
2022-10-09T05:03:28.772Z,8.40
2022-10-09T05:04:28.765Z,8.10
2022-10-09T05:05:28.758Z,8.80
2022-10-09T05:06:28.751Z,8.10
2022-10-09T05:07:28.725Z,7.90
2022-10-09T05:08:28.736Z,8.00
2022-10-09T05:09:28.743Z,8.10
2022-10-09T05:10:28.697Z,8.20
2022-10-09T05:11:28.709Z,7.80
2022-10-09T05:12:28.684Z,8.10
2022-10-09T05:13:28.660Z,7.80
2022-10-09T05:14:28.653Z,7.30
2022-10-09T05:15:28.640Z,7.40
2022-10-09T05:16:28.716Z,8.20
2022-10-09T05:17:28.700Z,8.50
2022-10-09T05:18:28.617Z,8.20
2022-10-09T05:19:28.595Z,8.00
2022-10-09T05:20:28.589Z,8.10
2022-10-09T05:21:28.585Z,8.00
2022-10-09T05:22:28.578Z,7.40
2022-10-09T05:23:28.553Z,8.10
2022-10-09T05:24:28.573Z,7.80
2022-10-09T05:25:28.553Z,7.90
2022-10-09T05:26:28.537Z,8.00
2022-10-09T05:27:28.532Z,7.40
2022-10-09T05:28:28.567Z,8.10
2022-10-09T05:29:28.506Z,7.70
2022-10-09T05:30:28.481Z,7.50
2022-10-09T05:31:28.579Z,7.80
2022-10-09T05:32:28.491Z,7.90
2022-10-09T05:33:28.445Z,7.60
2022-10-09T05:34:28.440Z,7.70
2022-10-09T05:35:28.435Z,7.40
2022-10-09T05:36:28.459Z,7.70
2022-10-09T05:37:28.429Z,8.00
2022-10-09T05:38:28.394Z,8.00
2022-10-09T05:39:28.396Z,7.80
2022-10-09T05:40:29.341Z,7.50
2022-10-09T05:41:28.388Z,7.80
2022-10-09T05:42:28.363Z,7.50
2022-10-09T05:43:28.338Z,7.30
2022-10-09T05:44:28.337Z,7.40
2022-10-09T05:45:28.362Z,8.40
2022-10-09T05:46:28.308Z,7.90
2022-10-09T05:47:28.294Z,8.40
2022-10-09T05:48:28.299Z,8.10
2022-10-09T05:49:28.284Z,8.00
2022-10-09T05:50:28.265Z,8.10
2022-10-09T05:51:28.256Z,7.20
2022-10-09T05:52:28.255Z,7.70
2022-10-09T05:53:28.229Z,8.00
2022-10-09T05:54:28.225Z,7.60
2022-10-09T05:55:28.210Z,7.50
2022-10-09T05:56:28.205Z,7.60
2022-10-09T05:57:28.216Z,7.50
2022-10-09T05:58:28.185Z,7.60
2022-10-09T05:59:28.195Z,8.20
2022-10-09T06:00:28.155Z,7.70
2022-10-09T06:01:28.256Z,8.20
2022-10-09T06:02:28.265Z,8.00
2022-10-09T06:03:28.130Z,8.00
2022-10-09T06:04:28.124Z,8.40
2022-10-09T06:05:28.105Z,8.30
2022-10-09T06:06:28.104Z,8.00
2022-10-09T06:07:28.087Z,8.60
2022-10-09T06:08:28.074Z,7.70
2022-10-09T06:09:28.070Z,7.90
2022-10-09T06:10:32.296Z,7.80
2022-10-09T06:11:28.099Z,8.40
2022-10-09T06:12:28.034Z,8.30
2022-10-09T06:13:28.048Z,7.80
2022-10-09T06:14:28.025Z,7.60
2022-10-09T06:15:28.001Z,7.60
2022-10-09T06:16:28.091Z,8.40
2022-10-09T06:17:27.976Z,8.30
2022-10-09T06:18:27.959Z,8.50
2022-10-09T06:19:27.952Z,7.90
2022-10-09T06:20:27.937Z,8.80
2022-10-09T06:21:27.949Z,8.50
2022-10-09T06:22:27.918Z,8.00
2022-10-09T06:23:27.916Z,8.40
2022-10-09T06:24:29.324Z,8.50
2022-10-09T06:25:27.903Z,7.70
2022-10-09T06:26:27.873Z,8.10
2022-10-09T06:27:27.883Z,8.40
2022-10-09T06:28:27.901Z,7.90
2022-10-09T06:29:27.873Z,7.70
2022-10-09T06:30:27.892Z,7.70
2022-10-09T06:31:27.925Z,7.90
2022-10-09T06:32:27.807Z,8.20
2022-10-09T06:33:27.806Z,7.90
2022-10-09T06:34:27.788Z,8.00
2022-10-09T06:35:27.788Z,7.70
2022-10-09T06:36:27.789Z,7.00
2022-10-09T06:37:27.758Z,8.10
2022-10-09T06:38:27.743Z,7.80
2022-10-09T06:39:27.750Z,7.60
2022-10-09T06:40:27.829Z,7.60
2022-10-09T06:41:27.734Z,7.30
2022-10-09T06:42:27.709Z,8.00
2022-10-09T06:43:27.697Z,8.10
2022-10-09T06:44:27.682Z,7.90
2022-10-09T06:45:27.692Z,8.00
2022-10-09T06:46:27.692Z,7.50
2022-10-09T06:47:27.650Z,7.30
2022-10-09T06:48:35.149Z,7.70
2022-10-09T06:49:27.641Z,7.80
2022-10-09T06:50:27.715Z,7.70
2022-10-09T06:51:27.620Z,7.90
2022-10-09T06:52:27.603Z,7.40
2022-10-09T06:53:27.584Z,7.20
2022-10-09T06:54:27.569Z,7.50
2022-10-09T06:55:28.854Z,7.90
2022-10-09T06:56:27.563Z,7.60
2022-10-09T06:57:27.540Z,7.40
2022-10-09T06:58:27.533Z,7.90
2022-10-09T06:59:27.520Z,7.50
2022-10-09T07:00:27.513Z,7.50
2022-10-09T07:01:27.550Z,6.80
2022-10-09T07:02:27.574Z,7.80
2022-10-09T07:03:27.483Z,7.90
2022-10-09T07:04:27.473Z,7.70
2022-10-09T07:05:27.456Z,7.60
2022-10-09T07:06:27.439Z,7.50
2022-10-09T07:07:27.447Z,7.40
2022-10-09T07:08:27.416Z,7.00
2022-10-09T07:09:27.411Z,7.40
2022-10-09T07:10:27.397Z,7.40
2022-10-09T07:11:27.426Z,7.50
2022-10-09T07:12:27.381Z,7.60
2022-10-09T07:13:27.387Z,7.00
2022-10-09T07:14:27.353Z,7.00
2022-10-09T07:15:27.398Z,7.70
2022-10-09T07:16:27.376Z,7.30
2022-10-09T07:17:27.347Z,7.20
2022-10-09T07:18:27.310Z,7.20
2022-10-09T07:19:27.305Z,6.90
2022-10-09T07:20:27.329Z,7.70
2022-10-09T07:21:27.289Z,6.90
2022-10-09T07:22:27.345Z,7.30
2022-10-09T07:23:27.270Z,6.60
2022-10-09T07:24:27.258Z,6.80
2022-10-09T07:25:27.242Z,7.10
2022-10-09T07:26:27.224Z,6.80
2022-10-09T07:27:27.221Z,7.10
2022-10-09T07:28:28.009Z,6.60
2022-10-09T07:29:27.210Z,7.30
2022-10-09T07:30:27.206Z,8.40
2022-10-09T07:31:27.310Z,7.50
2022-10-09T07:32:27.160Z,8.00
2022-10-09T07:33:27.188Z,7.50
2022-10-09T07:34:27.157Z,7.70
2022-10-09T07:35:27.132Z,7.80
2022-10-09T07:36:27.127Z,8.10
2022-10-09T07:37:27.125Z,8.30
2022-10-09T07:38:27.095Z,8.10
2022-10-09T07:39:27.095Z,8.30
2022-10-09T07:40:27.071Z,7.70
2022-10-09T07:41:27.084Z,7.10
2022-10-09T07:42:27.086Z,7.40
2022-10-09T07:43:27.057Z,8.10
2022-10-09T07:44:27.055Z,7.00
2022-10-09T07:45:27.022Z,8.40
2022-10-09T07:46:32.228Z,8.30
2022-10-09T07:47:28.022Z,8.70
2022-10-09T07:48:26.982Z,8.20
2022-10-09T07:49:26.997Z,7.90
2022-10-09T07:50:26.973Z,7.50
2022-10-09T07:51:26.962Z,7.70
2022-10-09T07:52:26.968Z,7.30
2022-10-09T07:53:26.932Z,7.30
2022-10-09T07:54:26.940Z,7.50
2022-10-09T07:55:26.922Z,7.30
2022-10-09T07:56:26.894Z,6.70
2022-10-09T07:57:26.889Z,7.20
2022-10-09T07:58:26.877Z,6.50
2022-10-09T07:59:26.889Z,6.40
2022-10-09T08:00:26.860Z,6.00
2022-10-09T08:01:26.879Z,6.00
2022-10-09T08:02:26.889Z,6.20
2022-10-09T08:03:26.842Z,5.40
2022-10-09T08:04:26.807Z,5.90
2022-10-09T08:05:26.820Z,5.60
2022-10-09T08:06:26.785Z,5.60
2022-10-09T08:07:28.468Z,5.50
2022-10-09T08:08:26.776Z,5.30
2022-10-09T08:09:26.771Z,5.40
2022-10-09T08:10:26.744Z,5.50
2022-10-09T08:11:26.735Z,5.30
2022-10-09T08:12:26.729Z,4.90
2022-10-09T08:13:26.730Z,5.10
2022-10-09T08:14:26.710Z,5.10
2022-10-09T08:15:26.760Z,4.90
2022-10-09T08:16:26.683Z,4.90
2022-10-09T08:17:26.701Z,4.80
2022-10-09T08:18:26.653Z,4.70
2022-10-09T08:19:26.658Z,4.70
2022-10-09T08:20:26.646Z,4.80
2022-10-09T08:21:26.644Z,4.70
2022-10-09T08:22:26.613Z,4.50
2022-10-09T08:23:26.615Z,4.40
2022-10-09T08:24:26.589Z,4.60
2022-10-09T08:25:26.594Z,4.30
2022-10-09T08:26:26.600Z,4.70
2022-10-09T08:27:26.565Z,4.90
2022-10-09T08:28:26.618Z,4.70
2022-10-09T08:29:26.540Z,4.30
2022-10-09T08:30:26.525Z,4.30
2022-10-09T08:31:26.626Z,3.90
2022-10-09T08:32:26.512Z,4.10
2022-10-09T08:33:26.497Z,4.60
2022-10-09T08:34:26.499Z,3.80
2022-10-09T08:35:27.514Z,3.70
2022-10-09T08:36:26.458Z,4.10
2022-10-09T08:37:26.475Z,4.20
2022-10-09T08:38:46.146Z,4.00
2022-10-09T08:39:27.442Z,4.50
2022-10-09T08:40:26.416Z,4.30
2022-10-09T08:41:26.405Z,3.60
2022-10-09T08:42:26.391Z,3.60
2022-10-09T08:43:26.387Z,3.50
2022-10-09T08:44:26.396Z,3.90
2022-10-09T08:45:26.378Z,3.60
2022-10-09T08:46:26.525Z,3.60
2022-10-09T08:47:26.353Z,3.80
2022-10-09T08:48:26.337Z,3.90
2022-10-09T08:49:33.835Z,3.70
2022-10-09T08:50:26.331Z,3.80
2022-10-09T08:51:26.297Z,3.40
2022-10-09T08:52:26.282Z,4.00
2022-10-09T08:53:26.295Z,3.80
2022-10-09T08:54:26.259Z,3.50
2022-10-09T08:55:26.284Z,3.70
2022-10-09T08:56:26.264Z,3.90
2022-10-09T08:57:26.979Z,3.50
2022-10-09T08:58:26.215Z,3.60
2022-10-09T08:59:26.213Z,3.50
2022-10-09T09:00:26.216Z,3.80
2022-10-09T09:01:26.291Z,3.10
2022-10-09T09:02:26.196Z,3.10
2022-10-09T09:03:26.165Z,3.20
2022-10-09T09:04:26.165Z,3.30
2022-10-09T09:05:26.177Z,3.20
2022-10-09T09:06:26.129Z,2.90
2022-10-09T09:07:26.133Z,3.20
2022-10-09T09:08:26.133Z,3.10
2022-10-09T09:09:26.126Z,3.20
2022-10-09T09:10:26.093Z,3.10
2022-10-09T09:11:26.078Z,3.30
2022-10-09T09:12:26.064Z,3.00
2022-10-09T09:13:26.070Z,3.00
2022-10-09T09:14:26.050Z,3.70
2022-10-09T09:15:26.085Z,2.80
2022-10-09T09:16:26.059Z,2.50
2022-10-09T09:17:26.014Z,2.70
2022-10-09T09:18:26.012Z,2.90
2022-10-09T09:19:26.008Z,2.70
2022-10-09T09:20:25.975Z,2.50
2022-10-09T09:21:25.970Z,2.80
2022-10-09T09:22:25.954Z,3.20
2022-10-09T09:23:25.955Z,2.90
2022-10-09T09:24:25.950Z,3.00
2022-10-09T09:25:25.963Z,3.10
2022-10-09T09:26:25.932Z,2.60
2022-10-09T09:27:25.905Z,2.70
2022-10-09T09:28:25.960Z,2.70
2022-10-09T09:29:25.894Z,2.90
2022-10-09T09:30:25.878Z,2.90
2022-10-09T09:31:25.883Z,2.80
2022-10-09T09:32:25.858Z,2.90
2022-10-09T09:33:25.840Z,2.80
2022-10-09T09:34:25.827Z,3.00
2022-10-09T09:35:25.830Z,2.90
2022-10-09T09:36:25.802Z,3.30
2022-10-09T09:37:25.798Z,3.00
2022-10-09T09:38:25.780Z,2.80
2022-10-09T09:40:08.173Z,2.50
2022-10-09T09:40:46.591Z,2.40
2022-10-09T09:41:26.836Z,2.30
2022-10-09T09:42:25.739Z,2.10
2022-10-09T09:43:25.729Z,2.40
2022-10-09T09:44:25.728Z,2.20
2022-10-09T09:45:25.710Z,2.30
2022-10-09T09:46:25.757Z,2.30
2022-10-09T09:47:25.698Z,2.20
2022-10-09T09:48:25.689Z,2.40
2022-10-09T09:49:25.671Z,1.90
2022-10-09T09:50:46.146Z,2.20
2022-10-09T09:51:29.219Z,2.00
2022-10-09T09:52:25.624Z,2.30
2022-10-09T09:53:25.636Z,2.30
2022-10-09T09:54:25.603Z,2.00
2022-10-09T09:55:25.617Z,2.10
2022-10-09T09:56:25.619Z,2.00
2022-10-09T09:57:25.597Z,2.30
2022-10-09T09:58:25.559Z,2.00
2022-10-09T09:59:25.552Z,2.50
2022-10-09T10:00:25.545Z,2.20
2022-10-09T10:01:25.624Z,2.00
2022-10-09T10:02:25.603Z,2.30
2022-10-09T10:03:25.534Z,2.20
2022-10-09T10:04:25.491Z,2.40
2022-10-09T10:05:25.496Z,2.10
2022-10-09T10:06:25.473Z,2.10
2022-10-09T10:07:25.501Z,2.10
2022-10-09T10:08:25.462Z,2.10
2022-10-09T10:09:25.458Z,1.60
2022-10-09T10:10:25.990Z,2.10
2022-10-09T10:11:25.430Z,2.10
2022-10-09T10:12:25.409Z,1.80
2022-10-09T10:13:25.413Z,2.10
2022-10-09T10:14:25.387Z,1.90
2022-10-09T10:15:25.371Z,2.30
2022-10-09T10:16:25.442Z,1.90
2022-10-09T10:17:25.378Z,2.20
2022-10-09T10:18:25.355Z,2.60
2022-10-09T10:19:25.328Z,2.10
2022-10-09T10:20:25.318Z,1.90
2022-10-09T10:21:25.303Z,2.10
2022-10-09T10:22:25.309Z,2.10
2022-10-09T10:23:25.308Z,1.90
2022-10-09T10:24:25.279Z,2.30
2022-10-09T10:25:25.261Z,1.70
2022-10-09T10:26:25.378Z,1.70
2022-10-09T10:27:25.264Z,1.80
2022-10-09T10:28:25.253Z,1.70
2022-10-09T10:29:25.236Z,1.70
2022-10-09T10:30:25.226Z,1.60
2022-10-09T22:45:32.048Z,1.90
2022-10-09T22:46:31.987Z,1.80
2022-10-09T22:47:31.971Z,1.80
2022-10-09T22:48:31.985Z,2.20
2022-10-09T22:49:31.948Z,1.90
2022-10-09T22:50:31.942Z,1.80
2022-10-09T22:51:31.927Z,2.20
2022-10-09T22:52:31.933Z,1.80
2022-10-09T22:53:31.906Z,1.80
2022-10-09T22:54:31.923Z,1.60
2022-10-09T22:55:31.900Z,1.70
2022-10-09T22:56:31.881Z,1.80
2022-10-09T22:57:31.862Z,2.00
2022-10-09T22:58:31.853Z,1.80
2022-10-09T22:59:31.849Z,1.80
2022-10-09T23:00:31.833Z,1.90
2022-10-09T23:01:31.904Z,1.80
2022-10-09T23:02:31.810Z,1.80
2022-10-09T23:03:31.796Z,2.10
2022-10-09T23:04:31.820Z,1.50
2022-10-09T23:05:31.779Z,1.90
2022-10-09T23:06:31.768Z,1.90
2022-10-09T23:07:31.752Z,1.80
2022-10-09T23:08:31.774Z,1.80
2022-10-09T23:09:31.729Z,2.40
2022-10-09T23:10:31.734Z,1.70
2022-10-09T23:11:31.708Z,2.10
2022-10-09T23:12:31.703Z,2.00
2022-10-09T23:13:31.689Z,1.70
2022-10-09T23:14:31.677Z,1.50
2022-10-09T23:15:31.708Z,1.70
2022-10-09T23:16:31.659Z,1.90
2022-10-09T23:17:31.664Z,1.60
2022-10-09T23:18:31.640Z,1.80
2022-10-09T23:19:31.622Z,1.60
2022-10-09T23:20:31.625Z,1.90
2022-10-09T23:21:31.615Z,1.70
2022-10-09T23:22:31.590Z,1.40
2022-10-09T23:23:31.574Z,2.00
2022-10-09T23:24:31.581Z,1.80
2022-10-09T23:25:31.561Z,2.10
2022-10-09T23:26:31.545Z,1.60
2022-10-09T23:27:31.534Z,1.70
2022-10-09T23:28:31.605Z,1.90
2022-10-09T23:29:31.550Z,1.90
2022-10-09T23:30:31.506Z,1.70
2022-10-09T23:31:31.494Z,1.50
2022-10-09T23:32:31.492Z,1.60
2022-10-09T23:33:31.495Z,1.90
2022-10-09T23:34:31.456Z,1.60
2022-10-09T23:35:31.468Z,1.70
2022-10-09T23:36:31.441Z,1.80
2022-10-09T23:37:31.419Z,1.60
2022-10-09T23:38:31.421Z,1.60
2022-10-09T23:39:31.408Z,1.60
2022-10-09T23:40:31.413Z,1.60
2022-10-09T23:41:31.381Z,1.90
2022-10-09T23:42:31.377Z,1.70
2022-10-09T23:43:31.377Z,1.80
2022-10-09T23:44:31.356Z,2.20
2022-10-09T23:45:31.376Z,1.60
2022-10-09T23:46:31.319Z,1.90
2022-10-09T23:47:31.314Z,1.70
2022-10-09T23:48:31.298Z,1.80
2022-10-09T23:49:31.312Z,1.70
2022-10-09T23:50:31.288Z,1.80
2022-10-09T23:51:31.272Z,1.60
2022-10-09T23:52:31.262Z,1.90
2022-10-09T23:53:31.264Z,1.90
2022-10-09T23:54:31.233Z,1.60
2022-10-09T23:55:31.258Z,1.70
2022-10-09T23:56:31.224Z,1.70
2022-10-09T23:57:31.220Z,1.70
2022-10-09T23:58:31.189Z,1.70
2022-10-09T23:59:31.182Z,2.10
